createdAt,value
2023-07-04T00:01:02.700Z,21.13
2023-07-04T00:03:29.198Z,20.98
2023-07-04T00:05:55.669Z,21.11
2023-07-04T00:08:22.131Z,21.17
2023-07-04T00:10:48.553Z,21.21
2023-07-04T00:13:15.047Z,21.19
2023-07-04T00:15:41.551Z,21.21
2023-07-04T00:18:07.998Z,21.23
2023-07-04T00:20:34.440Z,21.14
2023-07-04T00:23:00.951Z,21.17
2023-07-04T00:25:27.422Z,21.27
2023-07-04T00:27:53.859Z,21.33
2023-07-04T00:30:20.280Z,21.35
2023-07-04T00:32:46.697Z,21.48
2023-07-04T00:35:13.170Z,21.56
2023-07-04T00:37:39.601Z,21.62
2023-07-04T00:40:06.043Z,21.71
2023-07-04T00:42:32.488Z,21.81
2023-07-04T00:44:58.905Z,21.73
2023-07-04T00:47:25.413Z,21.55
2023-07-04T00:49:51.870Z,21.37
2023-07-04T00:52:18.301Z,21.35
2023-07-04T00:54:44.742Z,21.62
2023-07-04T00:57:11.167Z,21.52
2023-07-04T00:59:37.641Z,21.66
2023-07-04T01:02:04.194Z,21.63
2023-07-04T01:04:30.660Z,21.41
2023-07-04T01:06:57.093Z,21.27
2023-07-04T01:09:23.540Z,21.24
2023-07-04T01:11:49.998Z,21.32
2023-07-04T01:14:16.439Z,21.40
2023-07-04T01:16:42.898Z,21.40
2023-07-04T01:19:09.376Z,21.54
2023-07-04T01:21:35.780Z,21.72
2023-07-04T01:24:02.220Z,21.84
2023-07-04T01:26:28.621Z,21.74
2023-07-04T01:28:55.134Z,21.66
2023-07-04T01:31:21.606Z,21.75
2023-07-04T01:33:48.052Z,21.66
2023-07-04T01:36:14.579Z,21.59
2023-07-04T01:38:40.986Z,21.36
2023-07-04T01:41:07.530Z,21.35
2023-07-04T01:43:33.949Z,21.35
2023-07-04T01:46:00.483Z,21.28
2023-07-04T01:48:26.968Z,21.23
2023-07-04T01:50:53.677Z,21.30
2023-07-04T01:53:20.377Z,21.44
2023-07-04T01:55:46.809Z,21.41
2023-07-04T01:58:13.262Z,21.37
2023-07-04T02:00:39.712Z,21.42
2023-07-04T02:03:06.257Z,21.44
2023-07-04T02:05:32.799Z,21.50
2023-07-04T02:07:59.221Z,21.27
2023-07-04T02:10:25.630Z,21.08
2023-07-04T02:12:52.110Z,21.03
2023-07-04T02:15:18.589Z,21.12
2023-07-04T02:17:45.158Z,21.10
2023-07-04T02:20:11.622Z,21.18
2023-07-04T02:22:38.050Z,21.25
2023-07-04T02:25:04.611Z,21.26
2023-07-04T02:27:31.015Z,21.18
2023-07-04T02:29:57.453Z,21.03
2023-07-04T02:32:23.916Z,21.05
2023-07-04T02:34:50.375Z,21.09
2023-07-04T02:37:16.794Z,21.07
2023-07-04T02:39:43.228Z,20.83
2023-07-04T02:42:09.669Z,20.71
2023-07-04T02:44:36.096Z,20.71
2023-07-04T02:47:02.571Z,20.62
2023-07-04T02:49:28.993Z,20.63
2023-07-04T02:51:55.441Z,20.67
2023-07-04T02:54:21.871Z,20.76
2023-07-04T02:56:48.376Z,20.88
2023-07-04T02:59:14.854Z,21.03
2023-07-04T03:01:41.330Z,21.08
2023-07-04T03:04:07.869Z,21.18
2023-07-04T03:06:34.529Z,21.20
2023-07-04T03:09:00.971Z,21.28
2023-07-04T03:11:27.384Z,21.32
2023-07-04T03:13:53.901Z,21.36
2023-07-04T03:16:20.358Z,21.52
2023-07-04T03:18:46.800Z,21.63
2023-07-04T03:21:13.239Z,21.70
2023-07-04T03:23:39.655Z,21.71
2023-07-04T03:26:06.092Z,21.70
2023-07-04T03:28:32.489Z,21.68
2023-07-04T03:30:58.963Z,21.67
2023-07-04T03:33:25.371Z,21.59
2023-07-04T03:35:58.635Z,21.67
2023-07-04T03:38:26.322Z,21.74
2023-07-04T03:40:53.076Z,21.67
2023-07-04T03:43:19.790Z,21.61
2023-07-04T03:45:46.207Z,21.55
2023-07-04T03:48:12.740Z,21.57
2023-07-04T03:50:39.264Z,21.54
2023-07-04T03:53:05.729Z,21.57
2023-07-04T03:55:32.151Z,21.56
2023-07-04T03:57:58.590Z,21.54
2023-07-04T04:00:25.018Z,21.54
2023-07-04T04:02:51.643Z,21.51
2023-07-04T04:05:18.177Z,21.52
2023-07-04T04:07:44.626Z,21.50
2023-07-04T04:10:11.045Z,21.52
2023-07-04T04:12:37.451Z,21.52
2023-07-04T04:15:03.957Z,21.58
2023-07-04T04:17:30.470Z,21.60
2023-07-04T04:19:56.923Z,21.67
2023-07-04T04:22:23.436Z,21.69
2023-07-04T04:24:49.870Z,21.64
2023-07-04T04:27:16.310Z,21.57
2023-07-04T04:29:42.736Z,21.58
2023-07-04T04:32:09.179Z,21.60
2023-07-04T04:34:35.601Z,21.61
2023-07-04T04:37:02.045Z,21.64
2023-07-04T04:39:28.475Z,21.66
2023-07-04T04:41:54.890Z,21.70
2023-07-04T04:44:21.388Z,21.69
2023-07-04T04:46:47.856Z,21.70
2023-07-04T04:49:14.317Z,21.73
2023-07-04T04:51:40.734Z,21.70
2023-07-04T04:54:09.353Z,21.75
2023-07-04T04:56:35.774Z,21.83
2023-07-04T04:59:02.248Z,21.71
2023-07-04T05:01:28.759Z,21.41
2023-07-04T05:03:55.326Z,21.21
2023-07-04T05:06:21.850Z,21.02
2023-07-04T05:08:48.303Z,20.84
2023-07-04T05:11:14.819Z,20.74
2023-07-04T05:13:41.274Z,20.77
2023-07-04T05:16:07.806Z,21.04
2023-07-04T05:18:34.251Z,21.13
2023-07-04T05:21:02.044Z,20.95
2023-07-04T05:23:28.441Z,20.76
2023-07-04T05:25:54.860Z,20.64
2023-07-04T05:28:21.270Z,20.53
2023-07-04T05:30:47.672Z,20.61
2023-07-04T05:33:14.175Z,20.60
2023-07-04T05:35:40.617Z,20.75
2023-07-04T05:38:07.070Z,20.94
2023-07-04T05:40:33.514Z,20.96
2023-07-04T05:43:00.956Z,21.14
2023-07-04T05:45:27.359Z,21.30
2023-07-04T05:47:53.827Z,21.34
2023-07-04T05:50:20.270Z,21.54
2023-07-04T05:52:46.697Z,21.57
2023-07-04T05:55:13.108Z,21.44
2023-07-04T05:57:39.570Z,21.62
2023-07-04T06:00:06.011Z,21.47
2023-07-04T06:02:32.462Z,21.52
2023-07-04T06:04:59.017Z,21.39
2023-07-04T06:07:25.544Z,21.60
2023-07-04T06:09:52.016Z,21.57
2023-07-04T06:12:18.468Z,21.83
2023-07-04T06:14:44.936Z,21.80
2023-07-04T06:17:11.362Z,21.76
2023-07-04T06:19:37.838Z,21.66
2023-07-04T06:22:04.280Z,21.28
2023-07-04T06:24:30.698Z,21.32
2023-07-04T06:26:57.294Z,21.41
2023-07-04T06:29:23.771Z,21.49
2023-07-04T06:31:50.263Z,21.68
2023-07-04T06:34:16.738Z,21.68
2023-07-04T06:36:43.148Z,21.55
2023-07-04T06:39:09.584Z,21.80
2023-07-04T06:41:36.030Z,21.73
2023-07-04T06:44:02.442Z,21.51
2023-07-04T06:46:28.914Z,21.81
2023-07-04T06:48:55.388Z,21.64
2023-07-04T06:51:21.870Z,21.62
2023-07-04T06:53:48.866Z,21.21
2023-07-04T06:56:15.589Z,21.10
2023-07-04T06:58:42.127Z,21.10
2023-07-04T07:01:08.574Z,21.40
2023-07-04T07:03:35.156Z,21.50
2023-07-04T07:06:01.805Z,21.53
2023-07-04T07:08:28.266Z,20.87
2023-07-04T07:10:54.891Z,20.93
2023-07-04T07:13:21.636Z,20.63
2023-07-04T07:15:48.102Z,20.69
2023-07-04T07:18:14.549Z,20.69
2023-07-04T07:20:41.004Z,20.69
2023-07-04T07:23:07.416Z,20.64
2023-07-04T07:25:33.897Z,20.81
2023-07-04T07:28:00.323Z,21.17
2023-07-04T07:30:26.839Z,21.59
2023-07-04T07:32:53.275Z,21.88
2023-07-04T07:35:19.797Z,21.86
2023-07-04T07:37:46.270Z,22.11
2023-07-04T07:40:12.715Z,22.28
2023-07-04T07:42:39.132Z,22.36
2023-07-04T07:45:05.588Z,22.69
2023-07-04T07:47:32.055Z,22.50
2023-07-04T07:49:58.567Z,22.89
2023-07-04T07:52:25.004Z,23.10
2023-07-04T07:54:51.493Z,23.11
2023-07-04T07:57:17.918Z,22.93
2023-07-04T07:59:44.351Z,22.76
2023-07-04T08:02:10.766Z,23.05
2023-07-04T08:04:37.249Z,23.20
2023-07-04T08:07:03.758Z,22.71
2023-07-04T08:09:30.215Z,21.63
2023-07-04T08:11:56.660Z,21.52
2023-07-04T08:14:23.084Z,21.51
2023-07-04T08:16:49.639Z,21.66
2023-07-04T08:19:16.138Z,21.69
2023-07-04T08:21:42.552Z,21.46
2023-07-04T08:24:08.975Z,21.53
2023-07-04T08:26:35.402Z,21.96
2023-07-04T08:29:01.843Z,22.19
2023-07-04T08:31:28.304Z,22.59
2023-07-04T08:33:54.849Z,22.93
2023-07-04T08:36:21.274Z,22.88
2023-07-04T08:38:47.701Z,22.65
2023-07-04T08:41:14.223Z,22.28
2023-07-04T08:43:40.660Z,22.29
2023-07-04T08:46:07.140Z,22.49
2023-07-04T08:48:33.577Z,22.09
2023-07-04T08:51:00.044Z,22.47
2023-07-04T08:53:26.463Z,22.47
2023-07-04T08:55:52.935Z,22.51
2023-07-04T08:58:19.351Z,23.00
2023-07-04T09:00:45.794Z,23.02
2023-07-04T09:03:12.356Z,22.61
2023-07-04T09:05:38.837Z,21.88
2023-07-04T09:08:05.293Z,22.11
2023-07-04T09:10:31.733Z,22.47
2023-07-04T09:12:58.179Z,22.58
2023-07-04T09:15:24.571Z,22.00
2023-07-04T09:17:51.014Z,22.22
2023-07-04T09:20:17.469Z,22.21
2023-07-04T09:22:43.902Z,22.29
2023-07-04T09:25:10.343Z,22.49
2023-07-04T09:27:37.896Z,22.66
2023-07-04T09:30:04.302Z,22.63
2023-07-04T09:32:30.720Z,22.51
2023-07-04T09:34:57.223Z,22.00
2023-07-04T09:37:23.632Z,22.19
2023-07-04T09:42:26.894Z,22.80
2023-07-04T09:45:05.722Z,22.61
2023-07-04T09:47:32.192Z,23.00
2023-07-04T09:49:58.626Z,22.54
2023-07-04T09:52:25.065Z,22.40
2023-07-04T09:54:51.498Z,22.92
2023-07-04T09:57:17.908Z,23.01
2023-07-04T09:59:44.378Z,23.32
2023-07-04T10:02:10.818Z,23.22
2023-07-04T10:04:37.272Z,23.10
2023-07-04T10:07:03.716Z,23.24
2023-07-04T10:09:30.269Z,23.70
2023-07-04T10:11:56.689Z,23.77
2023-07-04T10:14:23.132Z,23.67
2023-07-04T10:16:49.583Z,23.60
2023-07-04T10:19:16.032Z,23.38
2023-07-04T10:21:42.460Z,23.31
2023-07-04T10:24:08.905Z,23.31
2023-07-04T10:26:35.339Z,23.48
2023-07-04T10:29:01.797Z,23.43
2023-07-04T10:31:28.327Z,23.54
2023-07-04T10:33:54.761Z,23.77
2023-07-04T10:36:22.057Z,23.45
2023-07-04T10:38:49.253Z,23.36
2023-07-04T10:41:15.732Z,23.00
2023-07-04T10:43:42.157Z,23.49
2023-07-04T10:46:08.594Z,23.26
2023-07-04T10:48:35.080Z,22.99
2023-07-04T10:51:01.499Z,23.17
2023-07-04T10:53:27.916Z,23.19
2023-07-04T10:55:54.332Z,23.49
2023-07-04T10:58:20.784Z,23.78
2023-07-04T11:00:47.205Z,23.87
2023-07-04T11:03:13.719Z,24.00
2023-07-04T11:05:40.181Z,24.22
2023-07-04T11:08:06.621Z,23.88
2023-07-04T11:10:33.055Z,24.08
2023-07-04T11:12:59.516Z,24.57
2023-07-04T11:15:25.923Z,24.49
2023-07-04T11:17:52.438Z,23.76
2023-07-04T11:20:19.055Z,23.42
2023-07-04T11:22:48.277Z,23.34
2023-07-04T11:25:21.211Z,24.02
2023-07-04T11:27:47.620Z,23.99
2023-07-04T11:30:14.071Z,24.28
2023-07-04T11:32:40.588Z,24.34
2023-07-04T11:35:07.206Z,24.08
2023-07-04T11:37:33.666Z,23.77
2023-07-04T11:40:00.141Z,23.98
2023-07-04T11:42:26.533Z,24.72
2023-07-04T11:44:53.007Z,24.81
2023-07-04T11:47:19.405Z,24.25
2023-07-04T11:49:45.852Z,25.11
2023-07-04T11:52:12.271Z,25.29
2023-07-04T11:54:38.714Z,25.55
2023-07-04T11:57:07.621Z,25.05
2023-07-04T11:59:34.236Z,24.98
2023-07-04T12:02:00.653Z,24.55
2023-07-04T12:04:27.055Z,24.23
2023-07-04T12:06:53.556Z,24.54
2023-07-04T12:09:19.983Z,24.44
2023-07-04T12:11:46.429Z,24.46
2023-07-04T12:14:12.849Z,24.85
2023-07-04T12:16:39.459Z,25.30
2023-07-04T12:19:06.013Z,25.20
2023-07-04T12:21:32.493Z,25.63
2023-07-04T12:23:59.019Z,25.09
2023-07-04T12:26:25.467Z,24.43
2023-07-04T12:29:01.903Z,25.39
2023-07-04T12:31:42.613Z,25.95
2023-07-04T12:34:09.916Z,25.59
2023-07-04T12:36:36.674Z,24.97
2023-07-04T12:39:03.105Z,25.33
2023-07-04T12:41:29.559Z,25.47
2023-07-04T12:51:23.916Z,24.76
2023-07-04T12:53:50.433Z,25.11
2023-07-04T12:56:16.838Z,25.29
2023-07-04T12:58:43.273Z,26.04
2023-07-04T13:01:09.701Z,25.46
2023-07-04T13:03:36.273Z,25.18
2023-07-04T13:06:02.712Z,25.45
2023-07-04T13:08:29.126Z,25.93
2023-07-04T13:10:55.547Z,26.48
2023-07-04T13:13:22.645Z,26.48
2023-07-04T13:15:49.240Z,26.47
2023-07-04T13:18:15.654Z,26.23
2023-07-04T13:20:42.070Z,26.58
2023-07-04T13:30:21.556Z,25.55
2023-07-04T13:33:22.824Z,26.31
2023-07-04T13:35:49.253Z,26.43
2023-07-04T13:40:45.004Z,27.79
2023-07-04T13:45:40.801Z,27.34
2023-07-04T13:48:07.230Z,27.82
2023-07-04T13:50:33.695Z,27.55
2023-07-04T13:53:13.730Z,27.33
2023-07-04T13:55:41.874Z,28.07
2023-07-04T13:58:08.295Z,27.74
2023-07-04T14:01:13.930Z,27.73
2023-07-04T14:05:56.885Z,28.66
2023-07-04T14:08:24.692Z,29.05
2023-07-04T14:10:51.113Z,28.40
2023-07-04T14:13:17.571Z,27.19
2023-07-04T14:20:42.696Z,27.66
2023-07-04T14:23:09.214Z,26.55
2023-07-04T14:25:35.656Z,26.57
2023-07-04T14:28:02.088Z,27.22
2023-07-04T14:30:28.528Z,26.76
2023-07-04T14:32:54.998Z,27.37
2023-07-04T14:35:21.478Z,26.80
2023-07-04T14:37:47.877Z,26.70
2023-07-04T14:42:48.658Z,26.83
2023-07-04T14:45:15.497Z,26.81
2023-07-04T14:47:42.000Z,26.83
2023-07-04T14:50:08.455Z,26.91
2023-07-04T14:52:34.863Z,26.66
2023-07-04T14:55:01.292Z,26.63
2023-07-04T14:57:27.723Z,26.65
2023-07-04T14:59:54.156Z,26.59
2023-07-04T15:02:20.636Z,26.41
2023-07-04T15:04:47.110Z,26.50
2023-07-04T15:07:13.504Z,27.13
2023-07-04T15:09:39.888Z,26.32
2023-07-04T15:12:06.297Z,25.97
2023-07-04T15:14:32.726Z,26.67
2023-07-04T15:16:59.210Z,26.33
2023-07-04T15:19:25.658Z,25.75
2023-07-04T15:21:52.088Z,26.29
2023-07-04T15:24:18.537Z,26.58
2023-07-04T15:26:44.965Z,27.40
2023-07-04T15:29:11.379Z,26.11
2023-07-04T15:31:37.803Z,25.86
2023-07-04T15:34:04.243Z,25.94
2023-07-04T15:36:30.740Z,25.88
2023-07-04T15:38:57.181Z,25.98
2023-07-04T15:41:23.619Z,26.51
2023-07-04T15:43:50.011Z,26.42
2023-07-04T15:46:16.521Z,26.09
2023-07-04T15:48:42.942Z,26.13
2023-07-04T15:51:09.376Z,26.53
2023-07-04T15:53:35.862Z,27.02
2023-07-04T15:56:02.299Z,26.19
2023-07-04T15:58:28.741Z,25.88
2023-07-04T16:00:55.162Z,26.23
2023-07-04T16:03:21.759Z,26.71
2023-07-04T16:05:48.310Z,26.82
2023-07-04T16:08:14.743Z,27.13
2023-07-04T16:10:41.171Z,26.89
2023-07-04T16:13:07.629Z,25.67
2023-07-04T16:15:34.074Z,25.58
2023-07-04T16:18:00.524Z,25.85
2023-07-04T16:20:27.062Z,26.26
2023-07-04T16:22:53.504Z,26.23
2023-07-04T16:25:19.957Z,26.53
2023-07-04T16:27:46.380Z,25.82
2023-07-04T16:30:12.794Z,25.90
2023-07-04T16:32:39.247Z,25.82
2023-07-04T16:35:05.682Z,26.15
2023-07-04T16:37:32.168Z,26.07
2023-07-04T16:39:58.596Z,26.47
2023-07-04T16:42:25.057Z,26.31
2023-07-04T16:44:51.497Z,25.95
2023-07-04T16:47:17.984Z,25.90
2023-07-04T16:49:44.482Z,26.19
2023-07-04T16:52:10.899Z,25.93
2023-07-04T16:54:37.346Z,26.37
2023-07-04T16:57:03.781Z,26.02
2023-07-04T16:59:30.251Z,26.51
2023-07-04T17:01:58.659Z,25.88
2023-07-04T17:04:26.532Z,26.17
2023-07-04T17:06:52.953Z,26.36
2023-07-04T17:09:19.448Z,26.40
2023-07-04T17:11:45.930Z,26.24
2023-07-04T17:14:12.373Z,26.34
2023-07-04T17:16:38.871Z,25.37
2023-07-04T17:19:05.524Z,25.44
2023-07-04T17:21:32.016Z,25.18
2023-07-04T17:23:58.464Z,25.66
2023-07-04T17:26:24.910Z,25.69
2023-07-04T17:28:51.345Z,26.35
2023-07-04T17:31:17.876Z,26.29
2023-07-04T17:33:44.344Z,25.65
2023-07-04T17:36:10.799Z,25.73
2023-07-04T17:38:37.889Z,25.93
2023-07-04T17:41:04.825Z,25.82
2023-07-04T17:43:31.329Z,25.98
2023-07-04T17:45:57.778Z,26.04
2023-07-04T17:48:24.199Z,25.54
2023-07-04T17:50:50.704Z,25.32
2023-07-04T17:53:17.251Z,25.37
2023-07-04T17:55:43.678Z,25.58
2023-07-04T17:58:10.131Z,25.53
2023-07-04T18:00:36.591Z,25.65
2023-07-04T18:03:03.156Z,25.92
2023-07-04T18:05:29.623Z,26.20
2023-07-04T18:07:56.043Z,26.25
2023-07-04T18:10:22.469Z,26.36
2023-07-04T18:12:48.879Z,26.47
2023-07-04T18:15:15.293Z,26.35
2023-07-04T18:17:41.797Z,25.88
2023-07-04T18:20:08.296Z,25.65
2023-07-04T18:22:34.805Z,25.55
2023-07-04T18:25:01.234Z,25.69
2023-07-04T18:27:27.635Z,25.41
2023-07-04T18:29:54.107Z,25.95
2023-07-04T18:32:20.513Z,25.79
2023-07-04T18:34:47.137Z,26.06
2023-07-04T18:37:13.576Z,25.94
2023-07-04T18:39:39.974Z,26.09
2023-07-04T18:42:06.449Z,26.17
2023-07-04T18:44:32.925Z,26.29
2023-07-04T18:46:59.361Z,26.32
2023-07-04T18:49:25.865Z,26.28
2023-07-04T18:51:52.322Z,26.14
2023-07-04T18:54:18.783Z,25.95
2023-07-04T18:56:45.260Z,25.82
2023-07-04T18:59:11.721Z,25.82
2023-07-04T19:01:38.255Z,25.89
2023-07-04T19:04:04.795Z,25.88
2023-07-04T19:06:31.240Z,25.99
2023-07-04T19:08:57.647Z,26.03
2023-07-04T19:11:24.082Z,26.01
2023-07-04T19:13:50.583Z,25.96
2023-07-04T19:16:17.105Z,25.68
2023-07-04T19:18:43.738Z,25.53
2023-07-04T19:21:10.197Z,25.40
2023-07-04T19:23:36.624Z,25.19
2023-07-04T19:26:03.089Z,25.14
2023-07-04T19:28:29.535Z,25.18
2023-07-04T19:30:56.066Z,25.23
2023-07-04T19:33:22.503Z,25.30
2023-07-04T19:35:48.906Z,25.38
2023-07-04T19:38:15.326Z,25.39
2023-07-04T19:40:41.738Z,25.44
2023-07-04T19:43:08.187Z,25.43
2023-07-04T19:45:34.627Z,25.51
2023-07-04T19:48:01.106Z,25.42
2023-07-04T19:50:27.557Z,25.41
2023-07-04T19:52:53.965Z,25.13
2023-07-04T19:55:20.384Z,24.87
2023-07-04T19:57:46.808Z,24.82
2023-07-04T20:00:13.217Z,24.74
2023-07-04T20:02:39.744Z,24.75
2023-07-04T20:05:06.267Z,24.75
2023-07-04T20:07:32.745Z,24.76
2023-07-04T20:09:59.185Z,24.87
2023-07-04T20:12:25.626Z,24.81
2023-07-04T20:14:52.046Z,24.77
2023-07-04T20:17:18.462Z,24.90
2023-07-04T20:19:44.911Z,24.89
2023-07-04T20:22:11.326Z,24.84
2023-07-04T20:24:37.761Z,24.74
2023-07-04T20:27:04.218Z,24.68
2023-07-04T20:29:30.666Z,24.62
2023-07-04T20:31:57.164Z,24.61
2023-07-04T20:34:23.821Z,24.57
2023-07-04T20:36:50.238Z,24.43
2023-07-04T20:39:16.685Z,24.39
2023-07-04T20:41:43.090Z,24.25
2023-07-04T20:44:09.517Z,24.10
2023-07-04T20:46:36.015Z,24.05
2023-07-04T20:49:02.462Z,24.09
2023-07-04T20:51:28.876Z,24.13
2023-07-04T20:53:55.303Z,24.11
2023-07-04T20:56:21.757Z,24.10
2023-07-04T20:58:48.195Z,24.03
2023-07-04T21:01:14.665Z,23.96
2023-07-04T21:03:41.130Z,24.00
2023-07-04T21:06:07.587Z,23.98
2023-07-04T21:08:34.028Z,24.07
2023-07-04T21:11:00.469Z,24.19
2023-07-04T21:13:26.931Z,24.12
2023-07-04T21:15:53.572Z,24.02
2023-07-04T21:18:20.165Z,24.02
2023-07-04T21:20:46.573Z,24.03
2023-07-04T21:23:12.993Z,24.03
2023-07-04T21:25:39.441Z,24.02
2023-07-04T21:28:05.886Z,23.98
2023-07-04T21:30:32.300Z,23.99
2023-07-04T21:32:58.740Z,23.92
2023-07-04T21:35:25.173Z,23.69
2023-07-04T21:37:51.619Z,23.53
2023-07-04T21:40:18.039Z,23.41
2023-07-04T21:42:44.460Z,23.41
2023-07-04T21:45:10.956Z,23.36
2023-07-04T21:47:37.448Z,23.35
2023-07-04T21:50:03.971Z,23.38
2023-07-04T21:52:30.384Z,23.11
2023-07-04T21:54:56.816Z,23.06
2023-07-04T21:57:23.271Z,22.77
2023-07-04T21:59:49.698Z,22.89
2023-07-04T22:02:16.127Z,22.93
2023-07-04T22:04:42.567Z,23.09
2023-07-04T22:07:08.995Z,23.22
2023-07-04T22:09:35.433Z,22.85
2023-07-04T22:12:01.895Z,22.96
2023-07-04T22:14:37.650Z,23.16
2023-07-04T22:17:05.182Z,23.18
2023-07-04T22:19:31.841Z,22.91
2023-07-04T22:21:58.331Z,22.80
2023-07-04T22:24:24.786Z,22.70
2023-07-04T22:26:51.271Z,22.75
2023-07-04T22:29:17.736Z,22.70
2023-07-04T22:31:44.185Z,22.88
2023-07-04T22:34:10.621Z,23.11
2023-07-04T22:36:37.051Z,23.03
2023-07-04T22:39:03.461Z,22.85
2023-07-04T22:41:29.894Z,22.70
2023-07-04T22:43:56.292Z,22.79
2023-07-04T22:46:22.704Z,22.97
2023-07-04T22:48:49.116Z,23.08
2023-07-04T22:51:15.538Z,23.10
2023-07-04T22:53:41.951Z,22.83
2023-07-04T22:56:08.402Z,22.65
2023-07-04T22:58:34.814Z,22.80
2023-07-04T23:01:02.006Z,22.88
2023-07-04T23:03:28.690Z,22.98
2023-07-04T23:05:55.462Z,23.11
2023-07-04T23:08:22.099Z,23.30
2023-07-04T23:10:48.516Z,23.39
2023-07-04T23:13:14.970Z,23.43
2023-07-04T23:15:41.410Z,23.22
2023-07-04T23:18:08.006Z,23.03
2023-07-04T23:20:34.534Z,23.03
2023-07-04T23:23:00.966Z,23.07
2023-07-04T23:25:27.392Z,22.83
2023-07-04T23:27:53.845Z,22.66
2023-07-04T23:30:20.285Z,22.70
2023-07-04T23:32:46.747Z,22.65
2023-07-04T23:35:13.213Z,22.63
2023-07-04T23:37:39.658Z,22.68
2023-07-04T23:40:06.098Z,22.64
2023-07-04T23:42:32.585Z,22.75
2023-07-04T23:44:59.031Z,22.87
2023-07-04T23:47:25.470Z,23.03
2023-07-04T23:49:52.094Z,23.12
2023-07-04T23:52:18.508Z,23.08
2023-07-04T23:54:44.951Z,23.10
2023-07-04T23:57:11.399Z,23.25
2023-07-04T23:59:37.824Z,23.08
